Time;durP1;ratioP1;P1;durP2;ratioP2;P2;SDS_P1;SDS_P2;PMS_P1;PMS_P2;Temp;Humidity;BMP_temperature;BMP_pressure;BME280_temperature;BME280_humidity;BME280_pressure;Samples;Min_cycle;Max_cycle;Signal;HPM_P1;HPM_P2
2022/01/23 00:03:19;;;;;;;20.77;6.63;;;;;;;;;;10481311;28;20041;-68
2022/01/23 00:08:24;;;;;;;12.57;4.80;;;;;;;;;;10476504;28;20124;-68
2022/01/23 00:13:33;;;;;;;17.67;6.37;;;;;;;;;;10472962;28;20036;-69
2022/01/23 00:18:38;;;;;;;21.77;6.77;;;;;;;;;;10473268;28;20045;-67
2022/01/23 00:34:20;;;;;;;10.83;4.27;;;;;;;;;;10473780;28;20103;-68
2022/01/23 00:39:23;;;;;;;10.97;4.30;;;;;;;;;;10475916;28;20211;-67
2022/01/23 00:44:28;;;;;;;3.60;1.70;;;;;;;;;;10474798;28;20037;-69
2022/01/23 00:49:32;;;;;;;10.33;4.70;;;;;;;;;;10475774;28;20045;-69
2022/01/23 00:54:35;;;;;;;17.23;5.97;;;;;;;;;;10471068;28;20041;-67
2022/01/23 00:59:39;;;;;;;6.40;2.60;;;;;;;;;;10473363;28;20124;-68
2022/01/23 01:04:43;;;;;;;16.87;5.40;;;;;;;;;;10472582;28;20037;-69
2022/01/23 01:09:50;;;;;;;15.80;3.70;;;;;;;;;;10473517;28;20410;-69
2022/01/23 01:31:01;;;;;;;12.77;4.00;;;;;;;;;;10468455;28;20116;-69
2022/01/23 01:36:18;;;;;;;23.17;6.93;;;;;;;;;;10473762;28;20029;-68
2022/01/23 01:41:22;;;;;;;16.97;5.53;;;;;;;;;;10473096;28;20056;-70
2022/01/23 01:46:25;;;;;;;5.97;3.33;;;;;;;;;;10469080;28;20406;-69
2022/01/23 01:51:32;;;;;;;12.73;4.63;;;;;;;;;;10461785;28;20274;-68
2022/01/23 01:56:46;;;;;;;13.57;5.10;;;;;;;;;;10467375;28;20069;-66
2022/01/23 02:18:01;;;;;;;12.57;4.10;;;;;;;;;;10461514;28;20143;-72
2022/01/23 02:23:24;;;;;;;7.63;2.50;;;;;;;;;;10454817;28;20040;-70
2022/01/23 02:55:16;;;;;;;10.90;4.37;;;;;;;;;;10504776;28;20099;-72
2022/01/23 03:00:21;;;;;;;16.53;6.20;;;;;;;;;;10500791;28;20032;-74
2022/01/23 03:05:34;;;;;;;7.70;2.83;;;;;;;;;;10520374;28;20078;-75
2022/01/23 03:10:43;;;;;;;17.23;3.53;;;;;;;;;;10523049;28;20040;-73
2022/01/23 03:16:15;;;;;;;12.67;4.70;;;;;;;;;;10526851;28;20288;-74
2022/01/23 03:26:53;;;;;;;15.37;5.60;;;;;;;;;;10519100;28;20090;-74
2022/01/23 03:32:13;;;;;;;20.80;5.93;;;;;;;;;;10491927;28;20046;-73
2022/01/23 03:37:16;;;;;;;4.90;2.63;;;;;;;;;;10502810;28;20480;-73
2022/01/23 03:42:21;;;;;;;16.70;6.07;;;;;;;;;;10491640;28;20043;-77
2022/01/23 03:47:36;;;;;;;16.20;5.67;;;;;;;;;;10498112;28;20071;-77
2022/01/23 03:52:40;;;;;;;18.73;6.53;;;;;;;;;;10490989;28;20032;-77
2022/01/23 03:57:45;;;;;;;16.50;5.43;;;;;;;;;;10496963;28;20404;-76
2022/01/23 04:02:48;;;;;;;14.53;5.63;;;;;;;;;;10491403;28;20063;-75
2022/01/23 04:07:51;;;;;;;21.10;7.13;;;;;;;;;;10493719;28;20044;-76
2022/01/23 04:13:11;;;;;;;20.57;5.67;;;;;;;;;;10516722;28;20087;-76
2022/01/23 04:34:37;;;;;;;8.00;2.73;;;;;;;;;;10529718;22;20024;-79
2022/01/23 04:45:39;;;;;;;16.27;4.83;;;;;;;;;;10428937;28;20119;-77
2022/01/23 05:01:42;;;;;;;13.37;4.57;;;;;;;;;;10423626;28;20045;-77
2022/01/23 05:06:48;;;;;;;12.47;4.97;;;;;;;;;;10429080;28;20041;-78
2022/01/23 05:11:54;;;;;;;6.83;3.50;;;;;;;;;;10432944;28;20128;-76
2022/01/23 05:16:58;;;;;;;6.00;2.10;;;;;;;;;;10457512;28;20041;-78
2022/01/23 05:22:21;;;;;;;7.00;3.13;;;;;;;;;;10457102;28;20041;-77
2022/01/23 05:27:27;;;;;;;8.00;4.03;;;;;;;;;;10450806;28;20048;-77
2022/01/23 05:32:34;;;;;;;13.40;3.77;;;;;;;;;;10437720;28;20783;-79
2022/01/23 05:37:38;;;;;;;4.17;1.73;;;;;;;;;;10411426;28;20055;-77
2022/01/23 05:42:42;;;;;;;7.87;3.07;;;;;;;;;;10424084;28;20029;-77
2022/01/23 05:47:46;;;;;;;12.67;4.60;;;;;;;;;;10425963;28;20068;-77
2022/01/23 05:52:50;;;;;;;8.80;3.83;;;;;;;;;;10412185;28;20122;-77
2022/01/23 05:57:55;;;;;;;12.77;4.43;;;;;;;;;;10433122;28;20334;-77
2022/01/23 06:02:57;;;;;;;;;;;;;;;;;;10434511;28;20037;-80
2022/01/23 06:08:00;;;;;;;11.57;3.43;;;;;;;;;;10428488;28;19925;-77
2022/01/23 06:13:05;;;;;;;15.97;4.83;;;;;;;;;;10408082;28;20069;-77
2022/01/23 06:18:08;;;;;;;13.63;4.17;;;;;;;;;;10405582;28;20045;-76
2022/01/23 06:23:11;;;;;;;15.60;5.30;;;;;;;;;;10423790;28;20057;-75
2022/01/23 06:28:21;;;;;;;12.87;4.47;;;;;;;;;;10458188;28;20041;-76
2022/01/23 06:33:24;;;;;;;13.13;4.33;;;;;;;;;;10465891;28;20018;-74
2022/01/23 06:38:27;;;;;;;16.80;5.87;;;;;;;;;;10416871;28;20453;-77
2022/01/23 06:43:32;;;;;;;17.70;5.67;;;;;;;;;;10443164;28;20128;-78
2022/01/23 06:48:35;;;;;;;;;;;;;;;;;;10436966;28;20040;-78
2022/01/23 06:53:38;;;;;;;11.27;3.80;;;;;;;;;;10425492;28;19959;-79
2022/01/23 06:58:44;;;;;;;11.27;4.40;;;;;;;;;;10428084;28;20136;-78
2022/01/23 07:03:47;;;;;;;15.10;5.47;;;;;;;;;;10427690;28;20120;-78
2022/01/23 07:08:51;;;;;;;9.27;3.97;;;;;;;;;;10431669;28;20091;-78
2022/01/23 07:13:56;;;;;;;12.52;4.50;;;;;;;;;;10434505;28;20029;-79
2022/01/23 07:18:59;;;;;;;;;;;;;;;;;;10435691;28;20155;-78
2022/01/23 07:24:02;;;;;;;13.60;4.90;;;;;;;;;;10425444;28;19992;-81
2022/01/23 07:29:07;;;;;;;13.70;4.57;;;;;;;;;;10425444;28;20042;-77
2022/01/23 07:34:12;;;;;;;18.33;4.90;;;;;;;;;;10415238;28;20064;-77
2022/01/23 07:39:15;;;;;;;16.23;5.57;;;;;;;;;;10451170;28;20037;-76
2022/01/23 07:44:20;;;;;;;15.47;5.10;;;;;;;;;;10457145;28;20048;-77
2022/01/23 07:49:23;;;;;;;12.00;4.37;;;;;;;;;;10460587;28;20040;-77
2022/01/23 07:54:26;;;;;;;12.37;4.83;;;;;;;;;;10448149;28;20044;-78
2022/01/23 07:59:31;;;;;;;20.07;6.17;;;;;;;;;;10456847;28;20167;-77
2022/01/23 08:04:35;;;;;;;13.97;4.90;;;;;;;;;;10448518;28;20040;-77
2022/01/23 08:09:38;;;;;;;17.37;6.30;;;;;;;;;;10482451;28;20066;-77
2022/01/23 08:14:46;;;;;;;20.63;6.73;;;;;;;;;;10470745;28;20041;-76
2022/01/23 08:19:49;;;;;;;14.07;5.33;;;;;;;;;;10462358;28;20124;-77
2022/01/23 08:24:54;;;;;;;16.77;6.17;;;;;;;;;;10464411;28;20075;-78
2022/01/23 08:29:58;;;;;;;14.73;5.55;;;;;;;;;;10455293;28;20303;-75
2022/01/23 08:35:01;;;;;;;18.70;5.77;;;;;;;;;;10465444;28;20041;-77
2022/01/23 08:40:05;;;;;;;10.93;3.33;;;;;;;;;;10424018;28;20374;-77
2022/01/23 08:45:10;;;;;;;9.00;4.18;;;;;;;;;;10431784;28;20046;-77
2022/01/23 08:50:13;;;;;;;18.63;6.87;;;;;;;;;;10426460;28;20173;-78
2022/01/23 08:55:17;;;;;;;16.17;6.38;;;;;;;;;;10420939;28;20436;-76
2022/01/23 09:00:21;;;;;;;16.43;5.40;;;;;;;;;;10421398;28;20044;-76
2022/01/23 09:05:25;;;;;;;6.67;3.50;;;;;;;;;;10430545;28;20579;-77
2022/01/23 09:10:39;;;;;;;23.00;6.40;;;;;;;;;;10439413;28;20292;-76
2022/01/23 09:15:49;;;;;;;16.87;5.77;;;;;;;;;;10459682;28;20044;-78
2022/01/23 09:20:53;;;;;;;10.90;4.37;;;;;;;;;;10443439;28;20110;-80
2022/01/23 09:25:59;;;;;;;22.87;8.10;;;;;;;;;;10436564;28;20052;-80
2022/01/23 09:31:04;;;;;;;20.43;7.27;;;;;;;;;;10436921;28;20031;-79
2022/01/23 09:36:14;;;;;;;18.83;6.93;;;;;;;;;;10471433;28;20033;-79
2022/01/23 09:41:19;;;;;;;19.27;7.17;;;;;;;;;;10462509;28;20032;-77
2022/01/23 09:46:25;;;;;;;18.40;6.40;;;;;;;;;;10465697;28;20057;-81
2022/01/23 09:51:29;;;;;;;19.60;6.73;;;;;;;;;;10457124;28;20057;-78
2022/01/23 09:56:35;;;;;;;17.40;6.30;;;;;;;;;;10471337;28;20040;-77
2022/01/23 10:01:41;;;;;;;20.20;7.25;;;;;;;;;;10445702;28;20103;-79
2022/01/23 10:06:44;;;;;;;20.03;8.00;;;;;;;;;;10475838;28;20048;-79
2022/01/23 10:11:48;;;;;;;18.27;6.97;;;;;;;;;;10465540;28;20667;-79
2022/01/23 10:16:53;;;;;;;17.48;7.13;;;;;;;;;;10469065;28;20041;-78
2022/01/23 10:21:58;;;;;;;17.05;6.40;;;;;;;;;;10470214;28;20734;-78
2022/01/23 10:27:01;;;;;;;20.90;7.97;;;;;;;;;;10471195;28;20104;-79
2022/01/23 10:32:07;;;;;;;20.27;7.55;;;;;;;;;;10460171;28;20067;-80
2022/01/23 10:37:14;;;;;;;22.23;7.80;;;;;;;;;;10456531;28;20079;-80
2022/01/23 10:42:26;;;;;;;19.10;6.38;;;;;;;;;;10456455;28;20178;-80
2022/01/23 10:47:44;;;;;;;17.00;6.50;;;;;;;;;;10454006;28;20037;-79
2022/01/23 10:52:50;;;;;;;18.52;7.60;;;;;;;;;;10460000;28;20037;-77
2022/01/23 10:57:54;;;;;;;20.90;8.10;;;;;;;;;;10469342;28;20062;-80
2022/01/23 11:03:00;;;;;;;18.02;6.20;;;;;;;;;;10477840;28;20029;-77
2022/01/23 11:08:18;;;;;;;19.17;7.13;;;;;;;;;;10469671;28;20059;-78
2022/01/23 11:18:42;;;;;;;22.02;8.30;;;;;;;;;;10468811;28;20115;-78
2022/01/23 11:23:45;;;;;;;18.42;8.30;;;;;;;;;;10459472;28;20109;-78
2022/01/23 11:28:48;;;;;;;18.40;7.13;;;;;;;;;;10454589;28;20062;-74
2022/01/23 11:33:52;;;;;;;14.88;7.15;;;;;;;;;;10439518;28;20052;-73
2022/01/23 11:39:00;;;;;;;20.58;7.30;;;;;;;;;;10434708;28;20048;-73
2022/01/23 11:54:47;;;;;;;20.98;7.55;;;;;;;;;;10421012;28;20067;-74
2022/01/23 11:59:50;;;;;;;15.27;6.57;;;;;;;;;;10439559;28;20064;-83
2022/01/23 12:05:11;;;;;;;18.03;7.03;;;;;;;;;;10489892;23;20041;-67
2022/01/23 12:10:20;;;;;;;19.77;6.88;;;;;;;;;;10304219;28;20220;-70
2022/01/23 12:20:45;;;;;;;16.60;7.70;;;;;;;;;;10315037;28;20046;-71
2022/01/23 12:25:48;;;;;;;;;;;;;;;;;;10315376;28;20080;-71
2022/01/23 12:30:54;;;;;;;17.52;6.93;;;;;;;;;;10314707;28;19936;-70
2022/01/23 12:35:59;;;;;;;15.00;7.55;;;;;;;;;;10318431;28;20066;-70
2022/01/23 12:41:23;;;;;;;15.23;8.43;;;;;;;;;;10312912;28;20046;-70
2022/01/23 12:46:38;;;;;;;16.17;7.97;;;;;;;;;;10321727;28;20034;-70
2022/01/23 12:51:42;;;;;;;14.00;7.60;;;;;;;;;;10321179;28;20487;-70
2022/01/23 12:56:46;;;;;;;15.05;6.57;;;;;;;;;;10337993;28;20342;-70
2022/01/23 13:01:56;;;;;;;16.25;7.38;;;;;;;;;;10321897;28;20038;-71
2022/01/23 13:07:07;;;;;;;14.02;6.72;;;;;;;;;;10337897;28;20076;-71
2022/01/23 13:12:14;;;;;;;14.70;5.93;;;;;;;;;;10345123;28;20196;-72
2022/01/23 13:17:39;;;;;;;13.48;5.70;;;;;;;;;;10364044;28;20105;-70
2022/01/23 13:33:25;;;;;;;11.63;4.90;;;;;;;;;;10362874;28;20453;-70
2022/01/23 13:38:33;;;;;;;19.60;7.53;;;;;;;;;;10363542;28;20057;-71
2022/01/23 13:59:53;;;;;;;12.50;4.65;;;;;;;;;;10374400;28;20072;-72
2022/01/23 14:05:04;;;;;;;11.68;4.90;;;;;;;;;;10373085;28;20481;-73
2022/01/23 14:10:13;;;;;;;12.32;4.88;;;;;;;;;;10366020;28;20045;-70
2022/01/23 14:15:17;;;;;;;12.07;4.85;;;;;;;;;;10366371;28;20030;-71
2022/01/23 14:20:23;;;;;;;15.82;5.57;;;;;;;;;;10388513;28;20053;-71
2022/01/23 14:25:27;;;;;;;16.73;5.50;;;;;;;;;;10367681;28;20077;-72
2022/01/23 14:30:30;;;;;;;15.13;5.57;;;;;;;;;;10367957;28;20353;-71
2022/01/23 14:35:35;;;;;;;22.43;7.50;;;;;;;;;;10361960;28;20121;-71
2022/01/23 14:40:39;;;;;;;16.42;6.63;;;;;;;;;;10362138;28;20058;-71
2022/01/23 14:45:44;;;;;;;18.20;6.55;;;;;;;;;;10359222;28;20193;-72
2022/01/23 14:50:51;;;;;;;17.65;6.18;;;;;;;;;;10366168;28;20383;-71
2022/01/23 14:55:56;;;;;;;17.40;6.43;;;;;;;;;;10356961;28;20048;-69
2022/01/23 15:00:59;;;;;;;17.45;6.18;;;;;;;;;;10361325;28;20593;-69
2022/01/23 15:06:04;;;;;;;18.63;6.38;;;;;;;;;;10360105;28;20084;-73
2022/01/23 15:11:08;;;;;;;22.48;8.50;;;;;;;;;;10358124;28;20046;-74
2022/01/23 15:16:12;;;;;;;16.10;6.82;;;;;;;;;;10359049;28;20034;-70
2022/01/23 15:21:16;;;;;;;23.25;7.38;;;;;;;;;;10330272;28;20050;-71
2022/01/23 15:26:19;;;;;;;18.00;6.55;;;;;;;;;;10357016;28;20418;-69
2022/01/23 15:31:23;;;;;;;19.50;6.17;;;;;;;;;;10342581;28;20068;-72
2022/01/23 15:36:27;;;;;;;20.70;6.95;;;;;;;;;;10359450;28;20034;-70
2022/01/23 15:41:30;;;;;;;20.70;7.30;;;;;;;;;;10346199;28;20046;-71
2022/01/23 15:46:33;;;;;;;20.93;6.93;;;;;;;;;;10362080;28;20030;-72
2022/01/23 15:51:38;;;;;;;20.60;7.57;;;;;;;;;;10355656;28;20129;-71
2022/01/23 15:56:41;;;;;;;20.87;7.77;;;;;;;;;;10351938;28;20044;-70
2022/01/23 16:01:46;;;;;;;18.77;7.10;;;;;;;;;;10360596;28;20034;-74
2022/01/23 16:06:50;;;;;;;22.80;7.77;;;;;;;;;;10338131;28;20055;-72
2022/01/23 16:11:53;;;;;;;22.47;7.03;;;;;;;;;;10354977;28;20064;-72
2022/01/23 16:16:57;;;;;;;20.47;6.90;;;;;;;;;;10358433;28;20041;-71
2022/01/23 16:22:01;;;;;;;28.00;9.00;;;;;;;;;;10354475;28;20324;-73
2022/01/23 16:27:05;;;;;;;25.63;8.30;;;;;;;;;;10330442;28;20152;-71
2022/01/23 16:32:08;;;;;;;22.07;7.97;;;;;;;;;;10339242;28;20037;-72
2022/01/23 16:37:12;;;;;;;22.93;7.47;;;;;;;;;;10343330;28;20521;-70
2022/01/23 16:42:15;;;;;;;;;;;;;;;;;;10354283;28;20045;-69
2022/01/23 16:47:18;;;;;;;26.70;8.60;;;;;;;;;;10356426;28;19928;-72
2022/01/23 16:52:23;;;;;;;24.77;7.43;;;;;;;;;;10347947;28;20084;-71
2022/01/23 16:57:26;;;;;;;24.90;7.63;;;;;;;;;;10338131;28;20065;-72
2022/01/23 17:02:29;;;;;;;17.10;6.70;;;;;;;;;;10356245;28;20385;-73
2022/01/23 17:07:34;;;;;;;20.40;7.00;;;;;;;;;;10361181;28;20054;-71
2022/01/23 17:12:37;;;;;;;24.50;7.83;;;;;;;;;;10356279;28;20379;-71
2022/01/23 17:17:39;;;;;;;19.10;7.03;;;;;;;;;;10358091;28;20034;-71
2022/01/23 17:22:44;;;;;;;21.93;7.83;;;;;;;;;;10355486;28;20490;-72
2022/01/23 17:27:48;;;;;;;19.13;6.83;;;;;;;;;;10357112;28;21392;-73
2022/01/23 17:32:52;;;;;;;18.37;6.67;;;;;;;;;;10364846;28;20056;-72
2022/01/23 17:37:56;;;;;;;;;;;;;;;;;;10364549;28;20489;-72
2022/01/23 17:43:01;;;;;;;14.33;5.63;;;;;;;;;;10358540;28;19925;-72
2022/01/23 17:48:32;;;;;;;15.57;6.13;;;;;;;;;;10346233;28;20180;-72
2022/01/23 17:53:36;;;;;;;23.73;7.10;;;;;;;;;;10362799;28;20046;-70
2022/01/23 17:58:41;;;;;;;22.23;8.37;;;;;;;;;;10362864;28;20462;-71
2022/01/23 18:03:44;;;;;;;19.80;6.27;;;;;;;;;;10362614;28;20132;-71
2022/01/23 18:08:48;;;;;;;20.65;7.25;;;;;;;;;;10357909;28;20042;-75
2022/01/23 18:13:58;;;;;;;22.83;7.67;;;;;;;;;;10364378;28;20030;-70
2022/01/23 18:19:01;;;;;;;23.40;8.07;;;;;;;;;;10352438;28;20470;-72
2022/01/23 18:24:24;;;;;;;27.97;8.77;;;;;;;;;;10399958;22;20084;-74
2022/01/23 18:29:31;;;;;;;30.23;9.17;;;;;;;;;;10363722;28;20199;-75
2022/01/23 18:34:34;;;;;;;29.33;8.90;;;;;;;;;;10336065;28;20037;-75
2022/01/23 18:39:38;;;;;;;26.60;9.17;;;;;;;;;;10341067;28;20140;-75
2022/01/23 18:44:44;;;;;;;20.95;7.93;;;;;;;;;;10340870;28;20541;-74
2022/01/23 18:49:47;;;;;;;27.63;8.40;;;;;;;;;;10346693;28;20045;-74
2022/01/23 18:54:55;;;;;;;25.57;8.97;;;;;;;;;;10359679;28;20483;-76
2022/01/23 19:00:17;;;;;;;25.58;9.38;;;;;;;;;;10344231;28;20195;-72
2022/01/23 19:05:24;;;;;;;31.00;8.70;;;;;;;;;;10354739;28;20038;-73
2022/01/23 19:10:34;;;;;;;20.93;6.77;;;;;;;;;;10353233;28;20053;-75
2022/01/23 19:15:39;;;;;;;25.80;7.27;;;;;;;;;;10363238;28;20033;-74
2022/01/23 19:20:42;;;;;;;24.77;8.23;;;;;;;;;;10363260;28;20057;-76
2022/01/23 19:25:45;;;;;;;27.40;8.07;;;;;;;;;;10360004;28;20116;-75
2022/01/23 19:30:50;;;;;;;35.53;9.70;;;;;;;;;;10361372;28;20203;-74
2022/01/23 19:35:54;;;;;;;21.93;7.17;;;;;;;;;;10345929;28;20118;-76
2022/01/23 19:41:06;;;;;;;33.73;9.40;;;;;;;;;;10359240;28;20391;-76
2022/01/23 19:46:16;;;;;;;35.33;9.67;;;;;;;;;;10359417;28;20030;-74
2022/01/23 19:51:19;;;;;;;29.57;9.10;;;;;;;;;;10359402;28;20049;-74
2022/01/23 19:56:22;;;;;;;33.17;9.13;;;;;;;;;;10369459;28;20041;-74
2022/01/23 20:01:28;;;;;;;26.63;8.98;;;;;;;;;;10375881;28;20050;-75
2022/01/23 20:06:32;;;;;;;31.57;9.93;;;;;;;;;;10368687;28;20052;-75
2022/01/23 20:16:57;;;;;;;32.00;8.77;;;;;;;;;;10364279;28;20057;-76
2022/01/23 20:22:01;;;;;;;31.87;9.40;;;;;;;;;;10362647;28;20075;-76
2022/01/23 20:27:06;;;;;;;29.53;10.53;;;;;;;;;;10366910;28;20073;-74
2022/01/23 20:32:11;;;;;;;39.20;10.47;;;;;;;;;;10366750;28;20069;-74
2022/01/23 20:37:16;;;;;;;39.73;10.63;;;;;;;;;;10367239;28;20042;-75
2022/01/23 20:42:19;;;;;;;34.43;10.27;;;;;;;;;;10369614;28;20044;-73
2022/01/23 20:47:24;;;;;;;36.00;10.77;;;;;;;;;;10364556;28;20396;-75
2022/01/23 20:52:37;;;;;;;36.83;11.17;;;;;;;;;;10358235;28;20104;-75
2022/01/23 20:57:40;;;;;;;34.53;9.60;;;;;;;;;;10364463;28;20049;-74
2022/01/23 21:02:47;;;;;;;36.13;11.73;;;;;;;;;;10343399;28;20292;-75
2022/01/23 21:07:51;;;;;;;32.33;9.57;;;;;;;;;;10364190;28;20137;-76
2022/01/23 21:12:54;;;;;;;31.47;9.23;;;;;;;;;;10352070;28;20595;-74
2022/01/23 21:18:06;;;;;;;31.03;8.97;;;;;;;;;;10349777;28;20057;-73
2022/01/23 21:23:34;;;;;;;22.77;7.80;;;;;;;;;;10359770;28;20358;-73
2022/01/23 21:29:21;;;;;;;28.10;9.37;;;;;;;;;;10368222;28;20040;-73
2022/01/23 21:39:35;;;;;;;22.23;7.57;;;;;;;;;;10363586;28;20050;-74
2022/01/23 21:44:43;;;;;;;27.47;9.30;;;;;;;;;;10367496;28;20037;-74
2022/01/23 21:49:48;;;;;;;34.67;9.77;;;;;;;;;;10387921;28;20041;-72
2022/01/23 21:54:51;;;;;;;33.93;10.63;;;;;;;;;;10360999;28;20072;-73
2022/01/23 21:59:55;;;;;;;37.37;10.07;;;;;;;;;;10362875;28;20648;-74
2022/01/23 22:04:59;;;;;;;26.95;7.90;;;;;;;;;;10362449;28;20034;-74
2022/01/23 22:10:14;;;;;;;12.23;5.60;;;;;;;;;;10360548;28;20033;-75
2022/01/23 22:20:42;;;;;;;11.00;5.33;;;;;;;;;;10359135;28;20034;-74
2022/01/23 22:31:06;;;;;;;10.40;3.80;;;;;;;;;;10343868;28;20038;-74
2022/01/23 22:36:10;;;;;;;29.37;9.60;;;;;;;;;;10358236;28;20038;-75
2022/01/23 22:41:14;;;;;;;26.77;8.73;;;;;;;;;;10358184;28;20134;-74
2022/01/23 22:46:27;;;;;;;25.30;7.90;;;;;;;;;;10357413;28;20037;-74
2022/01/23 22:51:33;;;;;;;17.05;6.93;;;;;;;;;;10351078;28;20088;-74
2022/01/23 22:56:37;;;;;;;10.10;4.80;;;;;;;;;;10357276;28;20041;-74
2022/01/23 23:01:41;;;;;;;16.10;5.13;;;;;;;;;;10344712;28;20120;-74
2022/01/23 23:06:46;;;;;;;23.90;8.37;;;;;;;;;;10359920;28;20447;-74
2022/01/23 23:11:49;;;;;;;22.73;7.10;;;;;;;;;;10355951;28;20068;-74
2022/01/23 23:16:59;;;;;;;11.27;4.28;;;;;;;;;;10359100;28;20046;-74
2022/01/23 23:22:04;;;;;;;8.57;3.27;;;;;;;;;;10355243;28;20049;-73
2022/01/23 23:27:12;;;;;;;9.43;4.30;;;;;;;;;;10356888;28;20125;-73
2022/01/23 23:32:15;;;;;;;19.13;7.07;;;;;;;;;;10352692;28;20041;-73
2022/01/23 23:37:19;;;;;;;19.77;7.30;;;;;;;;;;10374629;28;20074;-74
2022/01/23 23:42:31;;;;;;;14.67;3.80;;;;;;;;;;10358276;28;20050;-74
2022/01/23 23:47:36;;;;;;;16.23;6.37;;;;;;;;;;10358697;28;20475;-73
2022/01/23 23:52:45;;;;;;;17.60;7.30;;;;;;;;;;10360269;28;20046;-72
2022/01/23 23:57:49;;;;;;;19.40;7.43;;;;;;;;;;10348479;28;20050;-73
